Time;durP1;ratioP1;P1;durP2;ratioP2;P2;SDS_P1;SDS_P2;PMS_P1;PMS_P2;Temp;Humidity;BMP_temperature;BMP_pressure;BME280_temperature;BME280_humidity;BME280_pressure;Samples;Min_cycle;Max_cycle;Signal;HPM_P1;HPM_P2
2023/09/09 00:00:51;;;;;;;8.32;5.13;;;;;;;21.80;80.38;100856.63;5002062;28;20050;-45
2023/09/09 00:03:19;;;;;;;9.77;5.22;;;;;;;21.82;80.31;100854.16;5004622;28;20045;-46
2023/09/09 00:05:46;;;;;;;9.18;5.22;;;;;;;21.82;80.28;100854.97;5010990;28;20057;-47
2023/09/09 00:08:18;;;;;;;7.47;4.47;;;;;;;21.82;80.37;100852.16;5009490;28;20042;-45
2023/09/09 00:10:46;;;;;;;9.43;4.70;;;;;;;21.81;80.45;100849.78;5009259;28;20088;-48
2023/09/09 00:13:14;;;;;;;17.30;5.07;;;;;;;21.82;80.58;100848.53;5010549;28;20127;-46
2023/09/09 00:15:42;;;;;;;10.55;5.05;;;;;;;21.79;80.49;100844.53;5011158;28;20160;-46
2023/09/09 00:18:09;;;;;;;10.40;4.53;;;;;;;21.77;80.41;100846.19;5009941;28;20088;-46
2023/09/09 00:20:38;;;;;;;9.98;4.30;;;;;;;21.76;80.68;100847.41;5013975;28;20107;-45
2023/09/09 00:23:09;;;;;;;9.77;4.05;;;;;;;21.74;80.83;100844.19;5010870;28;20056;-45
2023/09/09 00:25:37;;;;;;;9.52;4.53;;;;;;;21.71;80.95;100836.59;5010699;28;20053;-45
2023/09/09 00:28:05;;;;;;;10.05;5.00;;;;;;;21.68;81.19;100843.84;4998001;28;20060;-45
2023/09/09 00:30:32;;;;;;;14.13;5.18;;;;;;;21.68;80.87;100831.78;5010668;28;20145;-46
2023/09/09 00:32:59;;;;;;;7.07;4.47;;;;;;;21.63;81.34;100830.22;5010372;28;20104;-45
2023/09/09 00:35:27;;;;;;;8.13;4.38;;;;;;;21.60;81.37;100836.72;5010241;28;20050;-45
2023/09/09 00:37:54;;;;;;;8.95;4.78;;;;;;;21.55;81.71;100839.94;4996028;28;20058;-45
2023/09/09 00:40:21;;;;;;;9.90;5.13;;;;;;;21.55;81.44;100839.19;5012623;28;20045;-45
2023/09/09 00:42:48;;;;;;;6.32;4.35;;;;;;;21.54;81.41;100846.03;4988575;28;20054;-54
2023/09/09 00:45:15;;;;;;;10.82;4.00;;;;;;;21.54;81.44;100843.19;5004725;28;20598;-45
2023/09/09 00:47:42;;;;;;;10.95;5.00;;;;;;;21.51;81.42;100832.75;4998873;28;20135;-47
2023/09/09 00:50:11;;;;;;;12.07;4.53;;;;;;;21.49;81.97;100838.81;4993863;28;20050;-53
2023/09/09 00:52:39;;;;;;;13.82;7.38;;;;;;;21.47;81.98;100843.28;5010801;28;20389;-47
2023/09/09 00:55:08;;;;;;;16.30;8.02;;;;;;;21.41;81.77;100830.84;5011414;28;20049;-46
2023/09/09 00:57:35;;;;;;;12.52;6.80;;;;;;;21.39;81.83;100836.13;5005283;28;20058;-48
2023/09/09 01:00:09;;;;;;;13.18;5.35;;;;;;;21.39;81.97;100836.13;5007552;28;20041;-45
2023/09/09 01:02:38;;;;;;;9.27;5.80;;;;;;;21.37;81.86;100835.69;5012235;28;20052;-46
2023/09/09 01:05:07;;;;;;;17.30;5.75;;;;;;;21.37;82.16;100832.88;4989146;28;20046;-49
2023/09/09 01:07:43;;;;;;;12.35;4.65;;;;;;;21.35;82.00;100833.31;4995900;28;20143;-46
2023/09/09 01:10:10;;;;;;;10.02;5.07;;;;;;;21.33;82.19;100826.50;4998673;28;20404;-48
2023/09/09 01:12:37;;;;;;;7.38;4.05;;;;;;;21.30;82.03;100827.31;5009158;28;20053;-46
2023/09/09 01:15:07;;;;;;;12.48;4.85;;;;;;;21.26;82.07;100823.75;5006527;28;20053;-45
2023/09/09 01:17:35;;;;;;;9.07;4.82;;;;;;;21.22;81.93;100821.78;5010256;28;20419;-45
2023/09/09 01:20:15;;;;;;;10.38;5.18;;;;;;;21.16;82.33;100823.44;5007268;28;20045;-46
2023/09/09 01:22:48;;;;;;;14.32;4.88;;;;;;;21.11;82.43;100818.25;5000968;28;20137;-45
2023/09/09 01:25:16;;;;;;;8.30;4.55;;;;;;;21.07;82.77;100814.66;5009611;28;20042;-45
2023/09/09 01:27:44;;;;;;;10.07;4.65;;;;;;;21.03;82.79;100825.13;5011670;28;20050;-48
2023/09/09 01:30:11;;;;;;;9.30;4.72;;;;;;;21.00;82.92;100823.13;5012146;28;20054;-47
2023/09/09 01:32:39;;;;;;;10.45;5.07;;;;;;;20.98;82.88;100833.19;5002833;28;20133;-45
2023/09/09 01:35:06;;;;;;;12.50;4.78;;;;;;;20.96;83.25;100815.94;5009812;28;20132;-48
2023/09/09 01:37:34;;;;;;;9.30;4.47;;;;;;;20.94;83.27;100821.94;4992132;28;20042;-45
2023/09/09 01:40:05;;;;;;;8.57;4.47;;;;;;;20.89;83.03;100813.97;5009530;28;20069;-45
2023/09/09 01:42:32;;;;;;;9.38;4.63;;;;;;;20.87;83.36;100821.22;4998651;28;20496;-45
2023/09/09 01:44:59;;;;;;;9.68;4.45;;;;;;;20.86;83.52;100823.25;5009708;28;20128;-44
2023/09/09 01:47:26;;;;;;;10.40;4.97;;;;;;;20.85;83.38;100823.66;5008657;28;20404;-50
2023/09/09 01:49:53;;;;;;;16.25;5.00;;;;;;;20.84;83.66;100828.47;5012746;28;20038;-52
2023/09/09 01:52:20;;;;;;;14.60;5.68;;;;;;;20.84;83.82;100822.84;4997137;28;20099;-45
2023/09/09 01:54:47;;;;;;;10.07;5.35;;;;;;;20.81;83.38;100812.41;5005595;28;20053;-46
2023/09/09 01:57:16;;;;;;;9.18;4.40;;;;;;;20.78;83.91;100807.63;5012252;28;20049;-46
2023/09/09 01:59:43;;;;;;;10.68;4.47;;;;;;;20.75;83.89;100811.25;5012551;28;20046;-45
2023/09/09 02:02:10;;;;;;;12.52;4.97;;;;;;;20.73;83.80;100812.88;5012534;28;20061;-45
2023/09/09 02:04:37;;;;;;;11.77;5.00;;;;;;;20.71;84.11;100810.47;5010774;28;20148;-47
2023/09/09 02:07:04;;;;;;;10.52;4.30;;;;;;;20.67;84.21;100806.91;5008230;28;20169;-45
2023/09/09 02:09:31;;;;;;;9.73;4.63;;;;;;;20.64;84.16;100810.53;5011418;28;20049;-45
2023/09/09 02:11:58;;;;;;;8.32;4.95;;;;;;;20.60;84.34;100818.19;5012513;28;20057;-44
2023/09/09 02:14:25;;;;;;;8.88;4.28;;;;;;;20.58;84.54;100826.22;5010728;28;20050;-45
2023/09/09 02:16:52;;;;;;;6.95;4.78;;;;;;;20.54;84.81;100814.22;5002267;28;20042;-46
2023/09/09 02:19:19;;;;;;;12.52;4.55;;;;;;;20.53;84.54;100809.78;4999156;28;20061;-45
2023/09/09 02:21:47;;;;;;;13.57;4.53;;;;;;;20.48;84.94;100813.84;5004640;28;20129;-50
2023/09/09 02:24:14;;;;;;;13.68;5.20;;;;;;;20.46;85.12;100821.91;5010075;28;20132;-47
2023/09/09 02:26:41;;;;;;;11.75;5.55;;;;;;;20.45;84.79;100827.91;5007888;28;20041;-45
2023/09/09 02:29:08;;;;;;;15.13;5.20;;;;;;;20.44;85.43;100815.06;5009436;28;20061;-47
2023/09/09 02:31:34;;;;;;;11.88;5.18;;;;;;;20.43;85.38;100808.66;5002419;28;20060;-45
2023/09/09 02:34:01;;;;;;;9.40;4.50;;;;;;;20.43;85.45;100824.72;5006122;28;20058;-45
2023/09/09 02:36:28;;;;;;;9.80;5.05;;;;;;;20.42;85.39;100823.09;5006581;28;20145;-51
2023/09/09 02:38:55;;;;;;;9.23;5.05;;;;;;;20.42;85.45;100828.72;5009365;28;20046;-47
2023/09/09 02:41:22;;;;;;;10.35;4.60;;;;;;;20.43;85.72;100816.28;5009132;28;20045;-44
2023/09/09 02:43:49;;;;;;;13.82;4.38;;;;;;;20.44;85.71;100829.13;5008587;28;20053;-46
2023/09/09 02:46:16;;;;;;;14.10;5.35;;;;;;;20.44;85.74;100827.13;5008256;28;20411;-47
2023/09/09 02:48:43;;;;;;;8.45;4.57;;;;;;;20.45;85.67;100827.91;5002911;28;20495;-45
2023/09/09 02:51:10;;;;;;;10.07;5.22;;;;;;;20.42;85.82;100828.72;5004043;28;20046;-46
2023/09/09 02:53:37;;;;;;;10.65;4.57;;;;;;;20.41;86.09;100829.97;5007090;28;20096;-47
2023/09/09 02:56:05;;;;;;;12.65;4.72;;;;;;;20.39;86.05;100826.75;5009046;28;20136;-46
2023/09/09 02:58:32;;;;;;;8.32;4.18;;;;;;;20.37;86.06;100820.72;5008735;28;20502;-46
2023/09/09 03:01:06;;;;;;;7.70;4.88;;;;;;;20.38;86.21;100827.97;4786638;22;20975;-46
2023/09/09 03:03:34;;;;;;;11.10;4.67;;;;;;;20.35;86.58;100828.78;5010819;28;20058;-45
2023/09/09 03:06:01;;;;;;;8.30;4.50;;;;;;;20.35;86.62;100835.22;5010254;28;20564;-47
2023/09/09 03:08:29;;;;;;;17.55;5.00;;;;;;;20.33;86.29;100834.03;5010789;28;20058;-46
2023/09/09 03:10:56;;;;;;;8.93;5.32;;;;;;;20.32;86.80;100832.41;5009609;28;20807;-48
2023/09/09 03:13:22;;;;;;;21.98;4.90;;;;;;;20.31;86.71;100833.59;5009902;28;20048;-45
2023/09/09 03:15:49;;;;;;;10.55;4.80;;;;;;;20.28;86.43;100835.22;5007214;28;20061;-48
2023/09/09 03:18:16;;;;;;;8.63;4.85;;;;;;;20.25;86.97;100835.25;5004143;28;20509;-45
2023/09/09 03:20:43;;;;;;;8.98;4.18;;;;;;;20.22;87.01;100838.84;5010167;28;20541;-45
2023/09/09 03:23:10;;;;;;;10.32;5.60;;;;;;;20.20;86.97;100832.84;5011990;28;20042;-45
2023/09/09 03:25:37;;;;;;;13.15;4.20;;;;;;;20.17;86.89;100834.47;5010406;28;20056;-45
2023/09/09 03:28:04;;;;;;;7.32;4.47;;;;;;;20.15;87.01;100831.25;5007471;28;20042;-46
2023/09/09 03:30:52;;;;;;;15.93;4.93;;;;;;;20.10;87.31;100828.06;5009273;28;20081;-44
2023/09/09 03:33:18;;;;;;;8.00;4.80;;;;;;;20.09;87.63;100832.09;5008935;28;20052;-44
2023/09/09 03:35:45;;;;;;;9.60;4.78;;;;;;;20.07;87.50;100826.84;5010619;28;20133;-45
2023/09/09 03:38:12;;;;;;;9.57;4.55;;;;;;;20.07;87.92;100834.50;4991333;28;20045;-45
2023/09/09 03:40:39;;;;;;;9.75;5.70;;;;;;;20.04;87.76;100836.91;5010192;28;20053;-45
2023/09/09 03:43:06;;;;;;;11.98;4.60;;;;;;;20.04;87.93;100836.91;5008267;28;20044;-45
2023/09/09 03:45:33;;;;;;;12.43;5.10;;;;;;;20.04;87.84;100822.84;5009292;28;20054;-45
2023/09/09 03:48:00;;;;;;;10.27;5.00;;;;;;;20.06;87.87;100825.28;5010172;28;20514;-45
2023/09/09 03:50:27;;;;;;;14.90;5.57;;;;;;;20.03;87.50;100824.06;5010325;28;20045;-44
2023/09/09 03:52:53;;;;;;;12.13;5.07;;;;;;;20.02;87.85;100824.47;5004965;28;20419;-44
2023/09/09 03:55:20;;;;;;;8.45;4.78;;;;;;;20.01;87.73;100817.25;5009879;28;20380;-45
2023/09/09 03:57:49;;;;;;;6.22;3.97;;;;;;;19.98;87.94;100826.50;5013522;28;20560;-47
2023/09/09 04:00:16;;;;;;;8.93;4.50;;;;;;;19.97;87.73;100825.69;5006399;28;20046;-46
2023/09/09 04:02:43;;;;;;;8.57;4.32;;;;;;;19.93;88.12;100824.94;5009639;28;20056;-46
2023/09/09 04:05:11;;;;;;;9.75;5.75;;;;;;;19.93;88.10;100821.31;5011163;28;20042;-45
2023/09/09 04:07:40;;;;;;;10.00;4.40;;;;;;;19.93;87.72;100830.53;5008191;28;20064;-50
2023/09/09 04:10:08;;;;;;;9.77;3.83;;;;;;;19.95;87.70;100824.50;5007910;28;20069;-45
2023/09/09 04:12:35;;;;;;;10.85;4.53;;;;;;;19.93;87.72;100829.75;5014240;28;20061;-45
2023/09/09 04:15:01;;;;;;;9.57;4.85;;;;;;;19.92;87.90;100816.88;5000606;28;20089;-47
2023/09/09 04:17:28;;;;;;;13.18;5.22;;;;;;;19.89;87.97;100824.13;5013508;28;20407;-44
2023/09/09 04:19:56;;;;;;;12.98;5.15;;;;;;;19.88;87.72;100830.94;5010434;28;20121;-45
2023/09/09 04:22:25;;;;;;;10.45;4.72;;;;;;;19.86;88.17;100824.94;5009680;28;20095;-50
2023/09/09 04:24:55;;;;;;;11.63;4.65;;;;;;;19.85;87.92;100822.53;5012699;28;20129;-45
2023/09/09 04:27:23;;;;;;;15.88;4.70;;;;;;;19.83;87.65;100819.34;5009296;28;20045;-44
2023/09/09 04:29:51;;;;;;;9.30;4.55;;;;;;;19.82;87.94;100826.16;5015804;28;20100;-46
2023/09/09 04:32:18;;;;;;;7.30;5.13;;;;;;;19.82;87.81;100829.78;5013967;28;20145;-46
2023/09/09 04:34:45;;;;;;;15.40;5.18;;;;;;;19.82;87.58;100831.78;5010742;28;20148;-45
2023/09/09 04:37:14;;;;;;;11.65;4.35;;;;;;;19.78;87.81;100834.59;5011832;28;20056;-46
2023/09/09 04:39:40;;;;;;;12.02;5.18;;;;;;;19.78;88.02;100833.78;5012514;28;20053;-45
2023/09/09 04:42:07;;;;;;;10.02;4.90;;;;;;;19.76;88.27;100825.78;5013377;28;20042;-46
2023/09/09 04:44:35;;;;;;;14.68;4.35;;;;;;;19.74;87.86;100839.44;5007486;28;20104;-46
2023/09/09 04:47:02;;;;;;;9.75;4.40;;;;;;;19.71;88.07;100837.41;5014818;28;20557;-44
2023/09/09 04:49:30;;;;;;;12.40;4.90;;;;;;;19.70;88.56;100833.00;5014096;28;20054;-44
2023/09/09 04:51:57;;;;;;;12.63;5.22;;;;;;;19.67;88.22;100839.41;5014166;28;20477;-45
2023/09/09 04:54:24;;;;;;;10.05;5.40;;;;;;;19.66;88.69;100837.84;5014129;28;20049;-46
2023/09/09 04:56:51;;;;;;;9.80;4.80;;;;;;;19.65;88.76;100841.03;5013147;28;20049;-48
2023/09/09 04:59:18;;;;;;;10.20;4.70;;;;;;;19.62;88.83;100842.66;5013466;28;20391;-46
2023/09/09 05:01:45;;;;;;;8.73;4.25;;;;;;;19.61;88.88;100846.69;5011339;28;20827;-45
2023/09/09 05:04:12;;;;;;;13.52;5.05;;;;;;;19.61;88.73;100849.50;5013649;28;20038;-49
2023/09/09 05:06:39;;;;;;;14.35;4.97;;;;;;;19.61;88.74;100852.28;5009661;28;20044;-45
2023/09/09 05:09:06;;;;;;;16.20;5.72;;;;;;;19.61;88.82;100843.88;5012466;28;20140;-49
2023/09/09 05:11:33;;;;;;;5.63;4.18;;;;;;;19.61;88.96;100849.50;5011706;28;20046;-45
2023/09/09 05:14:00;;;;;;;9.73;4.90;;;;;;;19.59;88.97;100843.44;5011128;28;20404;-46
2023/09/09 05:16:28;;;;;;;10.85;5.50;;;;;;;19.58;89.15;100844.66;5010094;28;20045;-45
2023/09/09 05:18:55;;;;;;;11.80;4.68;;;;;;;19.55;89.25;100841.88;5009877;28;20074;-49
2023/09/09 05:21:22;;;;;;;9.27;4.43;;;;;;;19.53;89.44;100847.91;5012702;28;20096;-47
2023/09/09 05:23:50;;;;;;;10.63;3.85;;;;;;;19.53;89.52;100855.50;5005215;28;20048;-49
2023/09/09 05:26:17;;;;;;;11.40;4.28;;;;;;;19.53;89.64;100849.91;5011389;28;20042;-50
2023/09/09 05:28:44;;;;;;;11.73;5.88;;;;;;;19.53;89.79;100850.69;5010340;28;20104;-48
2023/09/09 05:31:12;;;;;;;12.02;4.60;;;;;;;19.55;89.45;100853.91;5009287;28;20526;-46
2023/09/09 05:33:39;;;;;;;6.80;4.57;;;;;;;19.55;89.45;100858.72;5012118;28;20104;-48
2023/09/09 05:36:07;;;;;;;9.13;5.22;;;;;;;19.57;89.50;100856.28;5003018;28;20038;-45
2023/09/09 05:38:35;;;;;;;11.00;4.68;;;;;;;19.56;89.56;100849.91;5002781;28;20049;-45
2023/09/09 05:41:03;;;;;;;10.00;4.75;;;;;;;19.55;89.75;100853.91;5000277;28;20387;-46
2023/09/09 05:43:30;;;;;;;8.27;4.57;;;;;;;19.52;90.03;100854.69;4991759;28;20510;-44
2023/09/09 05:45:59;;;;;;;11.27;5.53;;;;;;;19.49;90.30;100861.13;5010631;28;20128;-45
2023/09/09 05:48:27;;;;;;;13.45;6.93;;;;;;;19.46;89.95;100850.69;5010094;28;20074;-46
2023/09/09 05:50:56;;;;;;;13.32;5.22;;;;;;;19.44;90.24;100864.34;5012190;28;20152;-45
2023/09/09 05:53:23;;;;;;;10.95;4.38;;;;;;;19.44;90.63;100861.53;4995101;28;20495;-46
2023/09/09 05:55:50;;;;;;;7.78;4.63;;;;;;;19.44;90.21;100858.72;5013977;28;20056;-45
2023/09/09 05:58:17;;;;;;;9.95;5.13;;;;;;;19.44;90.61;100858.72;5012748;28;20112;-46
2023/09/09 06:00:44;;;;;;;11.80;4.90;;;;;;;19.45;90.63;100857.53;5011867;28;20044;-47
2023/09/09 06:03:11;;;;;;;12.93;5.05;;;;;;;19.45;90.92;100854.72;5012592;28;20095;-45
2023/09/09 06:05:38;;;;;;;13.50;6.50;;;;;;;19.49;90.65;100849.88;5010932;28;20408;-47
2023/09/09 06:08:05;;;;;;;15.80;5.05;;;;;;;19.50;90.56;100848.69;5001104;28;20133;-46
2023/09/09 06:10:32;;;;;;;7.50;4.70;;;;;;;19.52;90.78;100853.91;5012254;28;20052;-47
2023/09/09 06:12:59;;;;;;;11.23;4.78;;;;;;;19.54;90.85;100855.09;5012922;28;20053;-46
2023/09/09 06:15:26;;;;;;;8.70;5.55;;;;;;;19.57;90.81;100856.28;5012818;28;20049;-47
2023/09/09 06:17:53;;;;;;;11.50;5.13;;;;;;;19.60;90.65;100850.69;5012271;28;20503;-45
2023/09/09 06:20:20;;;;;;;11.93;4.82;;;;;;;19.61;90.66;100855.09;5010727;28;20050;-46
2023/09/09 06:22:47;;;;;;;11.85;5.93;;;;;;;19.61;90.41;100857.09;5005072;28;20052;-46
2023/09/09 06:25:14;;;;;;;12.73;6.93;;;;;;;19.61;90.80;100846.69;5010308;28;20038;-48
2023/09/09 06:27:41;;;;;;;8.25;4.53;;;;;;;19.65;90.83;100841.84;4992088;28;20034;-50
2023/09/09 06:30:08;;;;;;;9.48;4.32;;;;;;;19.67;90.98;100839.41;5009015;28;20045;-48
2023/09/09 06:32:35;;;;;;;8.30;5.35;;;;;;;19.70;90.85;100840.63;5008937;28;20050;-48
2023/09/09 06:35:03;;;;;;;7.43;4.10;;;;;;;19.72;90.37;100844.66;5010268;28;20037;-45
2023/09/09 06:37:30;;;;;;;11.60;4.70;;;;;;;19.73;90.65;100846.25;5011569;28;20092;-45
2023/09/09 06:39:57;;;;;;;9.70;4.43;;;;;;;19.76;90.45;100858.66;5012442;28;20046;-48
2023/09/09 06:42:24;;;;;;;13.63;4.57;;;;;;;19.79;90.46;100860.69;5008219;28;20045;-45
2023/09/09 06:44:51;;;;;;;11.15;5.40;;;;;;;19.81;90.31;100867.50;5009489;28;20483;-45
2023/09/09 06:47:17;;;;;;;11.10;4.75;;;;;;;19.81;90.41;100861.88;5011150;28;20050;-46
2023/09/09 06:49:44;;;;;;;13.77;5.15;;;;;;;19.81;90.54;100864.69;5009177;28;20515;-47
2023/09/09 06:52:11;;;;;;;6.22;4.60;;;;;;;19.83;90.53;100859.47;5010367;28;20495;-45
2023/09/09 06:54:38;;;;;;;12.32;4.30;;;;;;;19.84;90.62;100866.69;5011006;28;20547;-45
2023/09/09 06:57:05;;;;;;;7.03;4.75;;;;;;;19.85;90.62;100867.50;5006154;28;20057;-45
2023/09/09 06:59:32;;;;;;;10.23;4.75;;;;;;;19.88;90.65;100866.69;5009364;28;20046;-45
2023/09/09 07:01:59;;;;;;;11.68;5.03;;;;;;;19.89;90.52;100866.28;5005648;28;20054;-48
2023/09/09 07:04:26;;;;;;;11.05;4.63;;;;;;;19.89;90.76;100874.69;5010864;28;20138;-45
2023/09/09 07:06:53;;;;;;;11.80;5.93;;;;;;;19.88;90.75;100875.91;4992383;28;20412;-45
2023/09/09 07:09:38;;;;;;;8.55;5.07;;;;;;;19.88;90.85;100867.47;5008865;28;20045;-46
2023/09/09 07:12:05;;;;;;;9.45;4.05;;;;;;;19.91;91.20;100875.09;5009800;28;20052;-45
2023/09/09 07:14:32;;;;;;;13.25;4.45;;;;;;;19.92;90.85;100873.91;5009684;28;20503;-45
2023/09/09 07:17:01;;;;;;;9.20;5.00;;;;;;;19.95;90.85;100875.09;5007041;28;20050;-45
2023/09/09 07:19:28;;;;;;;14.18;5.63;;;;;;;19.96;90.88;100876.72;5010661;28;20057;-46
2023/09/09 07:21:55;;;;;;;11.82;4.57;;;;;;;19.97;90.88;100872.66;5007816;28;20046;-45
2023/09/09 07:24:22;;;;;;;8.35;4.97;;;;;;;20.01;90.89;100876.28;5004910;28;20046;-52
2023/09/09 07:26:50;;;;;;;13.90;4.90;;;;;;;20.05;91.19;100883.50;5008628;28;20042;-45
2023/09/09 07:29:17;;;;;;;9.85;4.90;;;;;;;20.08;90.85;100876.25;5006407;28;20049;-47
2023/09/09 07:31:44;;;;;;;12.70;4.28;;;;;;;20.12;90.71;100876.25;4991358;28;20136;-48
2023/09/09 07:34:11;;;;;;;9.88;4.60;;;;;;;20.18;90.64;100874.59;4983491;28;20785;-46
2023/09/09 07:36:38;;;;;;;7.68;4.32;;;;;;;20.23;90.55;100874.97;5011588;28;20046;-46
2023/09/09 07:39:04;;;;;;;9.05;4.18;;;;;;;20.29;90.17;100873.41;5008675;28;20045;-45
2023/09/09 07:41:31;;;;;;;15.20;6.03;;;;;;;20.37;90.27;100865.72;5010831;28;20060;-47
2023/09/09 07:43:58;;;;;;;8.70;4.32;;;;;;;20.45;90.13;100879.34;5011041;28;20100;-45
2023/09/09 07:46:25;;;;;;;10.40;4.65;;;;;;;20.53;89.67;100874.50;5008234;28;20571;-45
2023/09/09 07:48:52;;;;;;;11.57;4.90;;;;;;;20.62;89.50;100884.06;5010910;28;20056;-46
2023/09/09 07:51:21;;;;;;;9.35;5.07;;;;;;;20.72;89.02;100876.78;5006062;28;20049;-52
2023/09/09 07:53:48;;;;;;;8.20;5.32;;;;;;;20.80;88.84;100889.63;5004653;28;20555;-50
2023/09/09 07:56:15;;;;;;;10.00;5.13;;;;;;;20.88;88.89;100885.53;5009308;28;20038;-47
2023/09/09 07:58:42;;;;;;;7.63;4.43;;;;;;;20.97;88.54;100890.72;5003426;28;20133;-51
2023/09/09 08:01:10;;;;;;;8.20;4.25;;;;;;;21.05;87.87;100887.44;5000372;28;20504;-48
2023/09/09 08:03:37;;;;;;;8.90;4.55;;;;;;;21.09;87.80;100893.88;5005678;28;20061;-47
2023/09/09 08:06:06;;;;;;;9.57;4.85;;;;;;;21.14;87.64;100889.81;5007634;28;20407;-49
2023/09/09 08:08:35;;;;;;;10.25;4.32;;;;;;;21.20;87.54;100893.81;5007931;28;20050;-46
2023/09/09 08:11:03;;;;;;;13.45;4.57;;;;;;;21.28;87.42;100891.72;5006460;28;20046;-49
2023/09/09 08:13:30;;;;;;;11.30;5.43;;;;;;;21.37;87.38;100906.94;4988862;28;20557;-47
2023/09/09 08:16:00;;;;;;;7.85;3.97;;;;;;;21.41;86.83;100901.28;5007242;28;20092;-46
2023/09/09 08:18:27;;;;;;;12.45;4.82;;;;;;;21.45;86.83;100908.47;5003982;28;20196;-52
2023/09/09 08:20:54;;;;;;;7.43;4.68;;;;;;;21.50;86.39;100904.44;5007510;28;20376;-49
2023/09/09 08:23:22;;;;;;;30.60;15.25;;;;;;;21.54;86.17;100908.00;5010387;28;20061;-55
2023/09/09 08:25:49;;;;;;;20.08;7.32;;;;;;;21.59;85.63;100907.56;4990859;28;20054;-51
2023/09/09 08:28:16;;;;;;;6.50;4.28;;;;;;;21.61;85.58;100910.75;5011408;28;20049;-50
2023/09/09 08:30:46;;;;;;;7.80;3.88;;;;;;;21.70;85.89;100911.88;5007392;28;20042;-52
2023/09/09 08:33:13;;;;;;;12.32;4.32;;;;;;;21.88;86.43;100908.09;4992948;28;20506;-54
2023/09/09 08:35:40;;;;;;;17.05;5.07;;;;;;;22.05;86.50;100919.22;4993230;28;20136;-51
2023/09/09 08:38:07;;;;;;;18.92;5.65;;;;;;;22.24;87.03;100920.63;5009130;28;20133;-51
2023/09/09 08:40:40;;;;;;;12.77;5.70;;;;;;;22.41;86.92;100913.94;4992145;28;20133;-52
2023/09/09 08:43:19;;;;;;;7.53;4.18;;;;;;;22.56;86.54;100909.72;5002766;28;20046;-55
2023/09/09 08:45:52;;;;;;;12.00;3.67;;;;;;;22.67;85.66;100921.72;5002334;28;20065;-53
2023/09/09 08:48:23;;;;;;;5.75;3.70;;;;;;;22.75;84.79;100923.22;4990761;28;20069;-51
2023/09/09 08:50:53;;;;;;;10.35;4.25;;;;;;;22.77;83.59;100922.81;5011925;28;20046;-54
2023/09/09 08:53:22;;;;;;;8.95;3.83;;;;;;;22.72;82.72;100926.88;5007487;28;20038;-50
2023/09/09 08:55:49;;;;;;;7.00;4.40;;;;;;;22.63;82.23;100926.63;5007324;28;20051;-52
2023/09/09 08:58:16;;;;;;;6.72;3.60;;;;;;;22.55;81.97;100924.25;5008874;28;20053;-53
2023/09/09 09:00:46;;;;;;;7.43;4.18;;;;;;;22.57;81.86;100941.56;5006457;28;20041;-51
2023/09/09 09:03:14;;;;;;;8.07;4.00;;;;;;;22.58;81.24;100934.72;4993380;28;20113;-53
2023/09/09 09:05:42;;;;;;;8.00;3.85;;;;;;;22.58;80.86;100938.34;4994105;28;20054;-52
2023/09/09 09:08:09;;;;;;;9.80;4.10;;;;;;;22.51;80.85;100934.78;4993164;28;20046;-51
2023/09/09 09:10:37;;;;;;;13.27;4.65;;;;;;;22.40;80.82;100935.72;4989772;28;20065;-53
2023/09/09 09:13:04;;;;;;;10.77;4.53;;;;;;;22.32;81.09;100931.38;4983194;28;20042;-50
2023/09/09 09:15:32;;;;;;;12.85;4.50;;;;;;;22.28;81.20;100939.09;4991266;28;20142;-50
2023/09/09 09:18:00;;;;;;;8.65;4.57;;;;;;;22.23;80.93;100927.47;4989259;28;20076;-52
2023/09/09 09:20:33;;;;;;;8.10;4.07;;;;;;;22.15;80.88;100929.56;4985938;28;20046;-55
2023/09/09 09:23:02;;;;;;;12.55;4.43;;;;;;;22.06;81.12;100931.28;4985922;28;20045;-52
2023/09/09 09:25:36;;;;;;;9.50;3.78;;;;;;;21.99;81.58;100926.53;4984845;28;20042;-52
2023/09/09 09:28:03;;;;;;;8.23;4.05;;;;;;;21.96;81.99;100921.72;4983640;28;20589;-58
2023/09/09 09:30:31;;;;;;;11.30;5.15;;;;;;;21.95;82.11;100925.75;4993710;28;20061;-50
2023/09/09 09:32:58;;;;;;;10.30;4.82;;;;;;;21.97;82.30;100922.53;4988939;28;20053;-52
2023/09/09 09:35:30;;;;;;;8.40;4.45;;;;;;;22.00;82.09;100933.75;4988944;28;20061;-53
2023/09/09 09:37:59;;;;;;;9.82;4.80;;;;;;;22.20;81.91;100933.94;4989549;28;20562;-51
2023/09/09 09:40:28;;;;;;;11.35;4.47;;;;;;;22.84;80.72;100925.53;4993014;28;20050;-52
2023/09/09 09:42:55;;;;;;;9.55;3.80;;;;;;;;;;4992665;28;20039;-54
2023/09/09 09:45:24;;;;;;;9.50;4.88;;;;;;;24.77;75.62;100943.13;4986817;28;20063;-52
2023/09/09 09:47:52;;;;;;;7.60;4.38;;;;;;;25.51;73.21;100952.81;4988656;28;20046;-51
2023/09/09 09:50:37;;;;;;;8.80;3.92;;;;;;;25.95;72.89;100951.25;4993303;28;20085;-50
2023/09/09 09:53:06;;;;;;;12.10;5.10;;;;;;;26.14;70.45;100949.56;4991379;28;20046;-48
2023/09/09 09:55:35;;;;;;;8.90;3.80;;;;;;;26.01;69.99;100946.66;4990188;28;20057;-52
2023/09/09 09:58:06;;;;;;;14.20;4.28;;;;;;;25.88;70.72;100952.28;4990852;28;20459;-51
2023/09/09 10:00:33;;;;;;;11.95;4.75;;;;;;;25.79;69.84;100935.06;4992303;28;20049;-49
2023/09/09 10:03:02;;;;;;;9.90;4.40;;;;;;;25.55;69.69;100936.50;5008181;28;20061;-49
2023/09/09 10:05:31;;;;;;;10.95;4.28;;;;;;;25.27;69.54;100942.84;5010448;28;20058;-50
2023/09/09 10:08:35;;;;;;;6.05;3.88;;;;;;;24.91;71.04;100931.53;5002761;28;20136;-50
2023/09/09 10:11:06;;;;;;;7.30;4.88;;;;;;;24.86;70.16;100939.75;4964402;28;20042;-51
2023/09/09 10:13:39;;;;;;;8.63;4.23;;;;;;;24.80;70.23;100930.97;5008131;28;20037;-50
2023/09/09 10:16:12;;;;;;;6.93;3.85;;;;;;;24.69;70.56;100942.50;5009128;28;20303;-52
2023/09/09 10:18:41;;;;;;;9.43;3.92;;;;;;;24.55;70.55;100939.16;5007886;28;20573;-50
2023/09/09 10:21:09;;;;;;;8.75;5.00;;;;;;;24.41;70.77;100942.28;5003967;28;20049;-50
2023/09/09 10:23:37;;;;;;;7.60;3.97;;;;;;;24.27;70.98;100937.72;5007909;28;20604;-52
2023/09/09 10:26:06;;;;;;;11.80;4.53;;;;;;;24.12;71.72;100937.16;5010776;28;20073;-52
2023/09/09 10:28:35;;;;;;;12.50;5.15;;;;;;;24.00;72.07;100932.13;5009426;28;20065;-49
2023/09/09 10:31:04;;;;;;;10.80;4.38;;;;;;;23.88;72.13;100923.47;5004556;28;20049;-53
2023/09/09 10:33:31;;;;;;;11.30;4.40;;;;;;;23.79;72.47;100928.88;5007219;28;20100;-55
2023/09/09 10:35:59;;;;;;;7.72;3.92;;;;;;;23.74;72.74;100923.72;5005247;28;20485;-49
2023/09/09 10:38:26;;;;;;;10.68;3.78;;;;;;;23.70;73.27;100922.97;5016175;28;20045;-55
2023/09/09 10:40:54;;;;;;;12.90;4.72;;;;;;;23.73;73.29;100924.94;5010066;28;20050;-50
2023/09/09 10:43:20;;;;;;;10.35;4.72;;;;;;;23.79;73.12;100929.69;4991085;28;20069;-49
2023/09/09 10:45:50;;;;;;;7.82;3.55;;;;;;;23.88;72.92;100931.97;5008011;28;20041;-52
2023/09/09 10:48:21;;;;;;;11.38;4.65;;;;;;;23.95;72.86;100920.50;5004748;28;20134;-52
2023/09/09 10:50:53;;;;;;;9.07;3.77;;;;;;;24.06;72.32;100921.91;5000199;28;20054;-51
2023/09/09 10:53:23;;;;;;;9.23;4.85;;;;;;;24.22;72.11;100924.84;4991467;28;20299;-48
2023/09/09 10:56:21;;;;;;;8.43;4.30;;;;;;;24.36;71.79;100926.59;5007548;28;20153;-53
2023/09/09 10:58:51;;;;;;;5.55;3.47;;;;;;;24.38;71.79;100915.66;4998785;28;20042;-49
2023/09/09 11:01:23;;;;;;;8.25;4.20;;;;;;;24.40;71.89;100923.69;5006656;28;20434;-50
2023/09/09 11:03:51;;;;;;;8.55;4.13;;;;;;;24.55;71.33;100922.97;5001497;28;20542;-54
2023/09/09 11:06:30;;;;;;;10.52;4.03;;;;;;;24.70;71.04;100929.16;4988498;28;20056;-48
2023/09/09 11:09:01;;;;;;;6.18;3.75;;;;;;;24.93;70.37;100923.38;4990214;28;20058;-52
2023/09/09 11:11:33;;;;;;;5.05;3.38;;;;;;;25.13;70.08;100914.81;4997518;28;20050;-54
2023/09/09 11:14:05;;;;;;;8.70;3.35;;;;;;;25.27;70.17;100914.50;5006368;28;20696;-50
2023/09/09 11:16:36;;;;;;;8.13;3.55;;;;;;;25.37;69.44;100924.78;5002751;28;20078;-50
2023/09/09 11:19:12;;;;;;;11.83;4.43;;;;;;;25.40;69.89;100924.69;5003116;28;20072;-50
2023/09/09 11:21:51;;;;;;;10.75;3.75;;;;;;;25.44;69.99;100927.44;5006694;28;20121;-50
2023/09/09 11:24:19;;;;;;;4.88;2.75;;;;;;;25.46;68.87;100919.31;5008093;28;20148;-48
2023/09/09 11:26:48;;;;;;;8.25;3.75;;;;;;;25.46;68.38;100916.50;5006096;28;20038;-50